sensor_id;sensor_type;location;lat;lon;timestamp;P1;durP1;ratioP1;P2;durP2;ratioP2
57217;SDS011;43078;52.972;6.482;2022-12-22T00:00:59;43.38;;;29.25;;
57217;SDS011;43078;52.972;6.482;2022-12-22T00:03:43;39.28;;;27.83;;
57217;SDS011;43078;52.972;6.482;2022-12-22T00:06:27;39.40;;;28.33;;
57217;SDS011;43078;52.972;6.482;2022-12-22T00:09:11;37.05;;;25.92;;
57217;SDS011;43078;52.972;6.482;2022-12-22T00:11:56;35.55;;;24.95;;
57217;SDS011;43078;52.972;6.482;2022-12-22T00:14:47;31.63;;;23.52;;
57217;SDS011;43078;52.972;6.482;2022-12-22T00:17:32;32.22;;;25.15;;
57217;SDS011;43078;52.972;6.482;2022-12-22T00:20:17;38.80;;;27.90;;
57217;SDS011;43078;52.972;6.482;2022-12-22T00:23:03;37.55;;;26.25;;
57217;SDS011;43078;52.972;6.482;2022-12-22T00:25:48;47.50;;;31.48;;
57217;SDS011;43078;52.972;6.482;2022-12-22T00:28:33;40.60;;;27.73;;
57217;SDS011;43078;52.972;6.482;2022-12-22T00:31:18;36.00;;;25.65;;
57217;SDS011;43078;52.972;6.482;2022-12-22T00:34:04;41.47;;;29.08;;
57217;SDS011;43078;52.972;6.482;2022-12-22T00:36:52;49.25;;;31.20;;
57217;SDS011;43078;52.972;6.482;2022-12-22T00:39:37;40.92;;;27.80;;
57217;SDS011;43078;52.972;6.482;2022-12-22T00:42:21;37.85;;;27.77;;
57217;SDS011;43078;52.972;6.482;2022-12-22T00:45:06;46.92;;;30.92;;
57217;SDS011;43078;52.972;6.482;2022-12-22T00:47:50;35.30;;;25.05;;
57217;SDS011;43078;52.972;6.482;2022-12-22T00:50:34;38.92;;;27.52;;
57217;SDS011;43078;52.972;6.482;2022-12-22T00:53:19;46.30;;;29.98;;
57217;SDS011;43078;52.972;6.482;2022-12-22T00:56:04;46.63;;;30.63;;
57217;SDS011;43078;52.972;6.482;2022-12-22T00:58:49;46.95;;;29.95;;
57217;SDS011;43078;52.972;6.482;2022-12-22T01:01:35;48.83;;;33.47;;
57217;SDS011;43078;52.972;6.482;2022-12-22T01:04:19;33.15;;;26.20;;
57217;SDS011;43078;52.972;6.482;2022-12-22T01:07:03;53.75;;;35.08;;
57217;SDS011;43078;52.972;6.482;2022-12-22T01:09:49;46.90;;;31.77;;
57217;SDS011;43078;52.972;6.482;2022-12-22T01:12:38;50.97;;;33.38;;
57217;SDS011;43078;52.972;6.482;2022-12-22T01:15:23;43.00;;;29.88;;
57217;SDS011;43078;52.972;6.482;2022-12-22T01:18:09;42.85;;;29.95;;
57217;SDS011;43078;52.972;6.482;2022-12-22T01:20:53;51.67;;;33.28;;
57217;SDS011;43078;52.972;6.482;2022-12-22T01:23:38;46.13;;;31.75;;
57217;SDS011;43078;52.972;6.482;2022-12-22T01:26:23;59.47;;;35.78;;
57217;SDS011;43078;52.972;6.482;2022-12-22T01:29:08;49.67;;;33.38;;
57217;SDS011;43078;52.972;6.482;2022-12-22T01:31:52;48.13;;;32.42;;
57217;SDS011;43078;52.972;6.482;2022-12-22T01:34:36;45.00;;;30.75;;
57217;SDS011;43078;52.972;6.482;2022-12-22T01:37:21;52.15;;;33.80;;
57217;SDS011;43078;52.972;6.482;2022-12-22T01:40:05;53.03;;;33.78;;
57217;SDS011;43078;52.972;6.482;2022-12-22T01:43:04;51.25;;;32.85;;
57217;SDS011;43078;52.972;6.482;2022-12-22T01:46:16;51.47;;;32.38;;
57217;SDS011;43078;52.972;6.482;2022-12-22T01:49:11;51.88;;;31.60;;
57217;SDS011;43078;52.972;6.482;2022-12-22T01:52:06;40.97;;;29.35;;
57217;SDS011;43078;52.972;6.482;2022-12-22T01:54:52;42.13;;;30.38;;
57217;SDS011;43078;52.972;6.482;2022-12-22T01:57:38;43.33;;;30.00;;
57217;SDS011;43078;52.972;6.482;2022-12-22T02:00:22;40.60;;;28.77;;
57217;SDS011;43078;52.972;6.482;2022-12-22T02:03:17;42.72;;;28.38;;
57217;SDS011;43078;52.972;6.482;2022-12-22T02:15:22;36.60;;;25.77;;
57217;SDS011;43078;52.972;6.482;2022-12-22T02:18:17;42.37;;;28.07;;
57217;SDS011;43078;52.972;6.482;2022-12-22T02:21:11;46.10;;;28.45;;
57217;SDS011;43078;52.972;6.482;2022-12-22T02:27:10;43.38;;;28.40;;
57217;SDS011;43078;52.972;6.482;2022-12-22T02:30:00;39.65;;;28.38;;
57217;SDS011;43078;52.972;6.482;2022-12-22T02:32:47;42.80;;;28.55;;
57217;SDS011;43078;52.972;6.482;2022-12-22T02:35:35;31.92;;;24.67;;
57217;SDS011;43078;52.972;6.482;2022-12-22T02:48:09;42.65;;;27.30;;
57217;SDS011;43078;52.972;6.482;2022-12-22T02:51:07;43.83;;;27.13;;
57217;SDS011;43078;52.972;6.482;2022-12-22T02:53:56;41.38;;;26.80;;
57217;SDS011;43078;52.972;6.482;2022-12-22T02:56:42;40.75;;;26.88;;
57217;SDS011;43078;52.972;6.482;2022-12-22T02:59:26;38.42;;;25.05;;
57217;SDS011;43078;52.972;6.482;2022-12-22T03:02:11;41.15;;;26.52;;
57217;SDS011;43078;52.972;6.482;2022-12-22T03:04:56;35.63;;;25.02;;
57217;SDS011;43078;52.972;6.482;2022-12-22T03:07:40;43.90;;;26.92;;
57217;SDS011;43078;52.972;6.482;2022-12-22T03:10:24;37.88;;;25.75;;
57217;SDS011;43078;52.972;6.482;2022-12-22T03:13:08;36.70;;;25.27;;
57217;SDS011;43078;52.972;6.482;2022-12-22T03:15:52;37.17;;;25.42;;
57217;SDS011;43078;52.972;6.482;2022-12-22T03:18:37;36.53;;;24.80;;
57217;SDS011;43078;52.972;6.482;2022-12-22T03:21:21;38.00;;;25.45;;
57217;SDS011;43078;52.972;6.482;2022-12-22T03:24:06;36.17;;;24.10;;
57217;SDS011;43078;52.972;6.482;2022-12-22T03:26:50;31.50;;;23.00;;
57217;SDS011;43078;52.972;6.482;2022-12-22T03:29:16;35.58;;;24.17;;
57217;SDS011;43078;52.972;6.482;2022-12-22T03:31:42;36.60;;;23.80;;
57217;SDS011;43078;52.972;6.482;2022-12-22T03:34:07;29.88;;;21.88;;
57217;SDS011;43078;52.972;6.482;2022-12-22T03:36:33;34.00;;;23.65;;
57217;SDS011;43078;52.972;6.482;2022-12-22T03:38:59;36.83;;;23.80;;
57217;SDS011;43078;52.972;6.482;2022-12-22T03:41:24;35.42;;;23.90;;
57217;SDS011;43078;52.972;6.482;2022-12-22T03:44:08;36.63;;;24.25;;
57217;SDS011;43078;52.972;6.482;2022-12-22T03:46:53;34.97;;;23.35;;
57217;SDS011;43078;52.972;6.482;2022-12-22T03:49:19;27.88;;;20.60;;
57217;SDS011;43078;52.972;6.482;2022-12-22T03:51:47;36.22;;;23.55;;
57217;SDS011;43078;52.972;6.482;2022-12-22T03:54:16;34.22;;;22.65;;
57217;SDS011;43078;52.972;6.482;2022-12-22T03:56:47;37.22;;;24.17;;
57217;SDS011;43078;52.972;6.482;2022-12-22T03:59:13;30.38;;;21.70;;
57217;SDS011;43078;52.972;6.482;2022-12-22T04:01:41;37.33;;;24.05;;
57217;SDS011;43078;52.972;6.482;2022-12-22T04:04:08;40.55;;;24.20;;
57217;SDS011;43078;52.972;6.482;2022-12-22T04:06:35;38.90;;;24.15;;
57217;SDS011;43078;52.972;6.482;2022-12-22T04:09:00;37.28;;;23.95;;
57217;SDS011;43078;52.972;6.482;2022-12-22T04:11:27;35.92;;;23.42;;
57217;SDS011;43078;52.972;6.482;2022-12-22T04:14:11;42.17;;;25.38;;
57217;SDS011;43078;52.972;6.482;2022-12-22T04:16:37;35.72;;;23.15;;
57217;SDS011;43078;52.972;6.482;2022-12-22T04:19:03;46.97;;;25.40;;
57217;SDS011;43078;52.972;6.482;2022-12-22T04:21:30;52.45;;;25.73;;
57217;SDS011;43078;52.972;6.482;2022-12-22T04:23:58;50.70;;;26.42;;
57217;SDS011;43078;52.972;6.482;2022-12-22T04:26:27;50.22;;;26.30;;
57217;SDS011;43078;52.972;6.482;2022-12-22T04:28:53;60.42;;;27.40;;
57217;SDS011;43078;52.972;6.482;2022-12-22T04:31:19;57.15;;;27.98;;
57217;SDS011;43078;52.972;6.482;2022-12-22T04:33:46;64.00;;;27.20;;
57217;SDS011;43078;52.972;6.482;2022-12-22T04:36:12;65.75;;;28.60;;
57217;SDS011;43078;52.972;6.482;2022-12-22T04:38:38;67.90;;;29.27;;
57217;SDS011;43078;52.972;6.482;2022-12-22T04:41:03;64.60;;;29.17;;
57217;SDS011;43078;52.972;6.482;2022-12-22T04:43:30;71.53;;;30.92;;
57217;SDS011;43078;52.972;6.482;2022-12-22T04:45:56;57.80;;;28.83;;
57217;SDS011;43078;52.972;6.482;2022-12-22T04:48:22;73.97;;;31.08;;
57217;SDS011;43078;52.972;6.482;2022-12-22T04:50:50;63.20;;;29.75;;
57217;SDS011;43078;52.972;6.482;2022-12-22T04:53:17;98.25;;;33.78;;
57217;SDS011;43078;52.972;6.482;2022-12-22T04:55:48;100.40;;;31.35;;
57217;SDS011;43078;52.972;6.482;2022-12-22T04:58:14;60.63;;;29.27;;
57217;SDS011;43078;52.972;6.482;2022-12-22T05:00:40;78.13;;;33.55;;
57217;SDS011;43078;52.972;6.482;2022-12-22T05:03:07;77.30;;;33.78;;
57217;SDS011;43078;52.972;6.482;2022-12-22T05:05:33;57.67;;;28.00;;
57217;SDS011;43078;52.972;6.482;2022-12-22T05:07:59;59.17;;;29.02;;
57217;SDS011;43078;52.972;6.482;2022-12-22T05:10:25;57.90;;;28.55;;
57217;SDS011;43078;52.972;6.482;2022-12-22T05:12:51;45.85;;;26.60;;
57217;SDS011;43078;52.972;6.482;2022-12-22T05:15:20;64.35;;;29.00;;
57217;SDS011;43078;52.972;6.482;2022-12-22T05:18:07;61.58;;;29.42;;
57217;SDS011;43078;52.972;6.482;2022-12-22T05:20:34;67.78;;;30.00;;
57217;SDS011;43078;52.972;6.482;2022-12-22T05:23:00;67.50;;;31.10;;
57217;SDS011;43078;52.972;6.482;2022-12-22T05:25:25;73.30;;;32.45;;
57217;SDS011;43078;52.972;6.482;2022-12-22T05:27:51;79.45;;;33.00;;
57217;SDS011;43078;52.972;6.482;2022-12-22T05:30:17;76.47;;;31.98;;
57217;SDS011;43078;52.972;6.482;2022-12-22T05:32:43;77.13;;;32.70;;
57217;SDS011;43078;52.972;6.482;2022-12-22T05:35:10;66.65;;;30.70;;
57217;SDS011;43078;52.972;6.482;2022-12-22T05:37:35;61.33;;;28.50;;
57217;SDS011;43078;52.972;6.482;2022-12-22T05:40:01;81.50;;;31.10;;
57217;SDS011;43078;52.972;6.482;2022-12-22T05:42:27;81.00;;;30.67;;
57217;SDS011;43078;52.972;6.482;2022-12-22T05:45:15;62.45;;;26.77;;
57217;SDS011;43078;52.972;6.482;2022-12-22T05:47:46;70.90;;;28.95;;
57217;SDS011;43078;52.972;6.482;2022-12-22T05:50:15;66.00;;;27.77;;
57217;SDS011;43078;52.972;6.482;2022-12-22T05:52:42;66.30;;;27.15;;
57217;SDS011;43078;52.972;6.482;2022-12-22T05:55:09;65.85;;;26.27;;
57217;SDS011;43078;52.972;6.482;2022-12-22T05:57:35;56.70;;;24.42;;
57217;SDS011;43078;52.972;6.482;2022-12-22T06:00:02;54.67;;;23.83;;
57217;SDS011;43078;52.972;6.482;2022-12-22T06:02:29;49.38;;;22.02;;
57217;SDS011;43078;52.972;6.482;2022-12-22T06:04:55;50.75;;;22.58;;
57217;SDS011;43078;52.972;6.482;2022-12-22T06:07:33;52.03;;;22.08;;
57217;SDS011;43078;52.972;6.482;2022-12-22T06:10:00;52.03;;;22.77;;
57217;SDS011;43078;52.972;6.482;2022-12-22T06:12:28;57.22;;;23.85;;
57217;SDS011;43078;52.972;6.482;2022-12-22T06:14:54;53.95;;;24.13;;
57217;SDS011;43078;52.972;6.482;2022-12-22T06:17:20;50.38;;;23.10;;
57217;SDS011;43078;52.972;6.482;2022-12-22T06:19:45;51.90;;;23.98;;
57217;SDS011;43078;52.972;6.482;2022-12-22T06:22:11;58.28;;;24.77;;
57217;SDS011;43078;52.972;6.482;2022-12-22T06:24:43;58.58;;;23.52;;
57217;SDS011;43078;52.972;6.482;2022-12-22T06:27:09;57.85;;;24.08;;
57217;SDS011;43078;52.972;6.482;2022-12-22T06:29:48;54.00;;;22.75;;
57217;SDS011;43078;52.972;6.482;2022-12-22T06:32:38;55.28;;;23.73;;
57217;SDS011;43078;52.972;6.482;2022-12-22T06:35:25;52.97;;;23.70;;
57217;SDS011;43078;52.972;6.482;2022-12-22T06:37:50;51.38;;;22.73;;
57217;SDS011;43078;52.972;6.482;2022-12-22T06:40:16;42.17;;;20.38;;
57217;SDS011;43078;52.972;6.482;2022-12-22T06:42:42;35.72;;;18.80;;
57217;SDS011;43078;52.972;6.482;2022-12-22T06:45:41;32.53;;;18.48;;
57217;SDS011;43078;52.972;6.482;2022-12-22T06:48:07;41.78;;;20.33;;
57217;SDS011;43078;52.972;6.482;2022-12-22T06:50:34;34.90;;;19.20;;
57217;SDS011;43078;52.972;6.482;2022-12-22T06:53:00;28.52;;;17.50;;
57217;SDS011;43078;52.972;6.482;2022-12-22T06:55:26;32.15;;;17.85;;
57217;SDS011;43078;52.972;6.482;2022-12-22T06:57:52;27.55;;;17.38;;
57217;SDS011;43078;52.972;6.482;2022-12-22T07:00:18;30.25;;;18.23;;
57217;SDS011;43078;52.972;6.482;2022-12-22T07:02:44;34.20;;;19.17;;
57217;SDS011;43078;52.972;6.482;2022-12-22T07:05:09;28.42;;;17.77;;
57217;SDS011;43078;52.972;6.482;2022-12-22T07:07:35;29.65;;;18.23;;
57217;SDS011;43078;52.972;6.482;2022-12-22T07:10:01;31.17;;;18.10;;
57217;SDS011;43078;52.972;6.482;2022-12-22T07:12:27;31.98;;;18.40;;
57217;SDS011;43078;52.972;6.482;2022-12-22T07:14:53;42.28;;;22.17;;
57217;SDS011;43078;52.972;6.482;2022-12-22T07:17:18;35.78;;;19.60;;
57217;SDS011;43078;52.972;6.482;2022-12-22T07:19:44;38.90;;;20.83;;
57217;SDS011;43078;52.972;6.482;2022-12-22T07:22:10;42.85;;;21.40;;
57217;SDS011;43078;52.972;6.482;2022-12-22T07:24:35;39.92;;;20.52;;
57217;SDS011;43078;52.972;6.482;2022-12-22T07:27:01;38.38;;;20.85;;
57217;SDS011;43078;52.972;6.482;2022-12-22T07:29:26;40.92;;;20.75;;
57217;SDS011;43078;52.972;6.482;2022-12-22T07:31:52;42.03;;;20.05;;
57217;SDS011;43078;52.972;6.482;2022-12-22T07:34:18;46.85;;;21.52;;
57217;SDS011;43078;52.972;6.482;2022-12-22T07:39:50;48.00;;;20.98;;
57217;SDS011;43078;52.972;6.482;2022-12-22T07:42:16;43.97;;;21.58;;
57217;SDS011;43078;52.972;6.482;2022-12-22T07:45:03;38.00;;;19.52;;
57217;SDS011;43078;52.972;6.482;2022-12-22T07:48:14;40.80;;;20.40;;
57217;SDS011;43078;52.972;6.482;2022-12-22T07:54:34;40.72;;;19.42;;
57217;SDS011;43078;52.972;6.482;2022-12-22T08:01:15;34.67;;;19.15;;
57217;SDS011;43078;52.972;6.482;2022-12-22T08:07:36;34.97;;;17.80;;
57217;SDS011;43078;52.972;6.482;2022-12-22T08:10:28;34.65;;;17.88;;
57217;SDS011;43078;52.972;6.482;2022-12-22T08:12:56;34.03;;;17.67;;
57217;SDS011;43078;52.972;6.482;2022-12-22T08:16:10;38.67;;;18.08;;
57217;SDS011;43078;52.972;6.482;2022-12-22T08:18:48;32.50;;;17.20;;
57217;SDS011;43078;52.972;6.482;2022-12-22T08:21:34;35.88;;;18.30;;
57217;SDS011;43078;52.972;6.482;2022-12-22T08:23:59;38.55;;;18.73;;
57217;SDS011;43078;52.972;6.482;2022-12-22T08:26:27;30.55;;;17.33;;
57217;SDS011;43078;52.972;6.482;2022-12-22T08:31:34;34.15;;;15.77;;
57217;SDS011;43078;52.972;6.482;2022-12-22T08:34:00;34.25;;;16.45;;
57217;SDS011;43078;52.972;6.482;2022-12-22T08:36:29;26.25;;;14.20;;
57217;SDS011;43078;52.972;6.482;2022-12-22T08:38:56;37.45;;;15.00;;
57217;SDS011;43078;52.972;6.482;2022-12-22T08:41:23;46.28;;;13.85;;
57217;SDS011;43078;52.972;6.482;2022-12-22T08:44:07;34.25;;;16.80;;
57217;SDS011;43078;52.972;6.482;2022-12-22T08:46:33;31.13;;;16.40;;
57217;SDS011;43078;52.972;6.482;2022-12-22T08:48:59;36.58;;;14.05;;
57217;SDS011;43078;52.972;6.482;2022-12-22T08:51:25;29.38;;;14.75;;
57217;SDS011;43078;52.972;6.482;2022-12-22T08:53:51;30.20;;;15.93;;
57217;SDS011;43078;52.972;6.482;2022-12-22T08:56:16;31.70;;;15.13;;
57217;SDS011;43078;52.972;6.482;2022-12-22T08:58:42;35.30;;;13.63;;
57217;SDS011;43078;52.972;6.482;2022-12-22T09:01:14;27.83;;;13.15;;
57217;SDS011;43078;52.972;6.482;2022-12-22T09:03:48;28.98;;;13.80;;
57217;SDS011;43078;52.972;6.482;2022-12-22T09:14:08;34.78;;;14.68;;
57217;SDS011;43078;52.972;6.482;2022-12-22T09:16:38;26.73;;;13.57;;
57217;SDS011;43078;52.972;6.482;2022-12-22T09:19:07;24.33;;;12.57;;
57217;SDS011;43078;52.972;6.482;2022-12-22T09:21:50;23.45;;;13.18;;
57217;SDS011;43078;52.972;6.482;2022-12-22T09:24:45;30.13;;;13.38;;
57217;SDS011;43078;52.972;6.482;2022-12-22T09:27:37;29.70;;;11.05;;
57217;SDS011;43078;52.972;6.482;2022-12-22T09:30:33;21.23;;;10.63;;
57217;SDS011;43078;52.972;6.482;2022-12-22T09:33:26;19.17;;;9.70;;
57217;SDS011;43078;52.972;6.482;2022-12-22T09:39:51;18.67;;;9.77;;
57217;SDS011;43078;52.972;6.482;2022-12-22T09:45:51;18.75;;;8.30;;
57217;SDS011;43078;52.972;6.482;2022-12-22T09:48:22;17.38;;;9.20;;
57217;SDS011;43078;52.972;6.482;2022-12-22T09:51:10;17.60;;;8.35;;
57217;SDS011;43078;52.972;6.482;2022-12-22T09:53:38;17.92;;;8.73;;
57217;SDS011;43078;52.972;6.482;2022-12-22T09:56:05;30.48;;;10.98;;
57217;SDS011;43078;52.972;6.482;2022-12-22T09:58:35;18.55;;;10.35;;
57217;SDS011;43078;52.972;6.482;2022-12-22T10:06:57;18.80;;;9.18;;
57217;SDS011;43078;52.972;6.482;2022-12-22T10:09:44;21.73;;;9.15;;
57217;SDS011;43078;52.972;6.482;2022-12-22T10:12:14;17.23;;;9.75;;
57217;SDS011;43078;52.972;6.482;2022-12-22T10:14:43;20.05;;;8.85;;
57217;SDS011;43078;52.972;6.482;2022-12-22T10:19:48;24.73;;;10.23;;
57217;SDS011;43078;52.972;6.482;2022-12-22T10:22:28;22.27;;;9.50;;
57217;SDS011;43078;52.972;6.482;2022-12-22T10:25:01;19.95;;;10.00;;
57217;SDS011;43078;52.972;6.482;2022-12-22T10:27:33;18.92;;;9.63;;
57217;SDS011;43078;52.972;6.482;2022-12-22T10:30:20;30.10;;;13.73;;
57217;SDS011;43078;52.972;6.482;2022-12-22T10:35:45;20.85;;;10.35;;
57217;SDS011;43078;52.972;6.482;2022-12-22T10:38:32;19.02;;;9.43;;
57217;SDS011;43078;52.972;6.482;2022-12-22T10:41:13;20.27;;;8.88;;
57217;SDS011;43078;52.972;6.482;2022-12-22T10:43:51;22.95;;;10.20;;
57217;SDS011;43078;52.972;6.482;2022-12-22T10:46:27;27.02;;;10.45;;
57217;SDS011;43078;52.972;6.482;2022-12-22T10:52:33;21.15;;;9.52;;
57217;SDS011;43078;52.972;6.482;2022-12-22T10:54:33;20.25;;;8.95;;
57217;SDS011;43078;52.972;6.482;2022-12-22T10:57:01;26.23;;;9.85;;
57217;SDS011;43078;52.972;6.482;2022-12-22T10:59:30;23.33;;;9.00;;
57217;SDS011;43078;52.972;6.482;2022-12-22T11:02:43;23.05;;;10.60;;
57217;SDS011;43078;52.972;6.482;2022-12-22T11:04:53;22.48;;;8.13;;
57217;SDS011;43078;52.972;6.482;2022-12-22T11:07:25;24.48;;;8.95;;
57217;SDS011;43078;52.972;6.482;2022-12-22T11:09:54;19.52;;;8.93;;
57217;SDS011;43078;52.972;6.482;2022-12-22T11:15:28;20.60;;;9.10;;
57217;SDS011;43078;52.972;6.482;2022-12-22T11:18:00;22.55;;;8.98;;
57217;SDS011;43078;52.972;6.482;2022-12-22T11:21:15;20.77;;;8.15;;
57217;SDS011;43078;52.972;6.482;2022-12-22T11:23:52;20.67;;;8.07;;
57217;SDS011;43078;52.972;6.482;2022-12-22T11:32:23;19.60;;;8.02;;
57217;SDS011;43078;52.972;6.482;2022-12-22T11:40:33;17.73;;;8.23;;
57217;SDS011;43078;52.972;6.482;2022-12-22T12:15:23;20.00;;;6.70;;
57217;SDS011;43078;52.972;6.482;2022-12-22T12:21:06;18.75;;;6.50;;
57217;SDS011;43078;52.972;6.482;2022-12-22T12:37:48;15.40;;;5.82;;
57217;SDS011;43078;52.972;6.482;2022-12-22T12:40:31;18.92;;;5.95;;
57217;SDS011;43078;52.972;6.482;2022-12-22T13:00:53;17.30;;;4.80;;
57217;SDS011;43078;52.972;6.482;2022-12-22T13:07:16;16.92;;;5.65;;
57217;SDS011;43078;52.972;6.482;2022-12-22T13:10:35;15.82;;;4.15;;
57217;SDS011;43078;52.972;6.482;2022-12-22T13:13:08;18.58;;;4.63;;
57217;SDS011;43078;52.972;6.482;2022-12-22T13:23:58;18.50;;;3.70;;
57217;SDS011;43078;52.972;6.482;2022-12-22T13:26:30;15.95;;;4.07;;
57217;SDS011;43078;52.972;6.482;2022-12-22T13:29:08;17.67;;;4.38;;
57217;SDS011;43078;52.972;6.482;2022-12-22T13:31:44;14.20;;;4.97;;
57217;SDS011;43078;52.972;6.482;2022-12-22T13:37:25;16.95;;;3.83;;
57217;SDS011;43078;52.972;6.482;2022-12-22T13:40:08;12.48;;;2.85;;
57217;SDS011;43078;52.972;6.482;2022-12-22T13:42:38;11.45;;;3.33;;
57217;SDS011;43078;52.972;6.482;2022-12-22T13:45:25;14.57;;;3.25;;
57217;SDS011;43078;52.972;6.482;2022-12-22T13:48:13;14.27;;;3.13;;
57217;SDS011;43078;52.972;6.482;2022-12-22T13:50:43;15.43;;;2.83;;
57217;SDS011;43078;52.972;6.482;2022-12-22T13:53:13;12.48;;;2.60;;
57217;SDS011;43078;52.972;6.482;2022-12-22T13:55:59;12.48;;;2.80;;
57217;SDS011;43078;52.972;6.482;2022-12-22T13:58:29;13.65;;;2.92;;
57217;SDS011;43078;52.972;6.482;2022-12-22T14:01:18;10.15;;;2.38;;
57217;SDS011;43078;52.972;6.482;2022-12-22T14:03:45;15.85;;;3.05;;
57217;SDS011;43078;52.972;6.482;2022-12-22T14:06:30;18.77;;;3.00;;
57217;SDS011;43078;52.972;6.482;2022-12-22T14:09:09;14.65;;;2.65;;
57217;SDS011;43078;52.972;6.482;2022-12-22T14:14:40;15.45;;;2.60;;
57217;SDS011;43078;52.972;6.482;2022-12-22T14:19:48;12.55;;;2.83;;
57217;SDS011;43078;52.972;6.482;2022-12-22T14:25:36;11.18;;;2.72;;
57217;SDS011;43078;52.972;6.482;2022-12-22T14:28:26;12.25;;;3.30;;
57217;SDS011;43078;52.972;6.482;2022-12-22T14:31:21;9.73;;;3.10;;
57217;SDS011;43078;52.972;6.482;2022-12-22T14:37:22;14.63;;;2.85;;
57217;SDS011;43078;52.972;6.482;2022-12-22T14:40:37;11.85;;;3.17;;
57217;SDS011;43078;52.972;6.482;2022-12-22T14:43:29;10.32;;;2.85;;
57217;SDS011;43078;52.972;6.482;2022-12-22T14:50:15;13.60;;;3.10;;
57217;SDS011;43078;52.972;6.482;2022-12-22T14:53:11;9.73;;;2.80;;
57217;SDS011;43078;52.972;6.482;2022-12-22T15:06:35;14.10;;;3.10;;
57217;SDS011;43078;52.972;6.482;2022-12-22T15:09:51;11.13;;;2.60;;
57217;SDS011;43078;52.972;6.482;2022-12-22T15:12:16;10.88;;;3.00;;
57217;SDS011;43078;52.972;6.482;2022-12-22T15:17:33;12.73;;;2.95;;
57217;SDS011;43078;52.972;6.482;2022-12-22T15:24:08;10.07;;;2.70;;
57217;SDS011;43078;52.972;6.482;2022-12-22T15:26:57;10.13;;;3.13;;
57217;SDS011;43078;52.972;6.482;2022-12-22T15:38:32;12.55;;;3.25;;
57217;SDS011;43078;52.972;6.482;2022-12-22T15:41:02;8.65;;;3.00;;
57217;SDS011;43078;52.972;6.482;2022-12-22T15:44:13;11.75;;;3.15;;
57217;SDS011;43078;52.972;6.482;2022-12-22T15:46:51;11.00;;;3.28;;
57217;SDS011;43078;52.972;6.482;2022-12-22T15:55:48;9.68;;;3.38;;
57217;SDS011;43078;52.972;6.482;2022-12-22T15:58:19;11.30;;;3.58;;
57217;SDS011;43078;52.972;6.482;2022-12-22T16:00:53;13.02;;;4.07;;
57217;SDS011;43078;52.972;6.482;2022-12-22T16:03:42;16.27;;;5.20;;
57217;SDS011;43078;52.972;6.482;2022-12-22T16:06:13;11.43;;;4.15;;
57217;SDS011;43078;52.972;6.482;2022-12-22T16:08:43;13.63;;;5.18;;
57217;SDS011;43078;52.972;6.482;2022-12-22T16:11:13;14.40;;;6.40;;
57217;SDS011;43078;52.972;6.482;2022-12-22T16:13:39;11.27;;;5.28;;
57217;SDS011;43078;52.972;6.482;2022-12-22T16:16:05;12.27;;;5.10;;
57217;SDS011;43078;52.972;6.482;2022-12-22T16:18:32;14.13;;;6.30;;
57217;SDS011;43078;52.972;6.482;2022-12-22T16:21:00;14.80;;;6.15;;
57217;SDS011;43078;52.972;6.482;2022-12-22T16:23:32;16.40;;;7.15;;
57217;SDS011;43078;52.972;6.482;2022-12-22T16:26:00;16.58;;;6.00;;
57217;SDS011;43078;52.972;6.482;2022-12-22T16:28:28;13.88;;;5.22;;
57217;SDS011;43078;52.972;6.482;2022-12-22T16:30:54;14.95;;;5.85;;
57217;SDS011;43078;52.972;6.482;2022-12-22T16:33:20;14.77;;;5.35;;
57217;SDS011;43078;52.972;6.482;2022-12-22T16:35:48;19.40;;;8.68;;
57217;SDS011;43078;52.972;6.482;2022-12-22T16:38:17;15.75;;;9.35;;
57217;SDS011;43078;52.972;6.482;2022-12-22T16:40:44;15.68;;;8.40;;
57217;SDS011;43078;52.972;6.482;2022-12-22T16:43:16;17.63;;;9.80;;
57217;SDS011;43078;52.972;6.482;2022-12-22T16:45:47;22.10;;;13.05;;
57217;SDS011;43078;52.972;6.482;2022-12-22T16:48:20;17.00;;;11.18;;
57217;SDS011;43078;52.972;6.482;2022-12-22T16:50:56;16.33;;;11.10;;
57217;SDS011;43078;52.972;6.482;2022-12-22T16:53:22;27.05;;;15.93;;
57217;SDS011;43078;52.972;6.482;2022-12-22T16:55:48;17.08;;;11.82;;
57217;SDS011;43078;52.972;6.482;2022-12-22T16:58:13;20.95;;;15.00;;
57217;SDS011;43078;52.972;6.482;2022-12-22T17:00:39;15.18;;;9.40;;
57217;SDS011;43078;52.972;6.482;2022-12-22T17:03:40;18.67;;;12.93;;
57217;SDS011;43078;52.972;6.482;2022-12-22T17:06:02;19.55;;;13.30;;
57217;SDS011;43078;52.972;6.482;2022-12-22T17:08:31;16.05;;;11.73;;
57217;SDS011;43078;52.972;6.482;2022-12-22T17:10:59;16.48;;;10.75;;
57217;SDS011;43078;52.972;6.482;2022-12-22T17:13:26;17.70;;;12.20;;
57217;SDS011;43078;52.972;6.482;2022-12-22T17:15:52;21.70;;;14.75;;
57217;SDS011;43078;52.972;6.482;2022-12-22T17:18:19;19.60;;;13.95;;
57217;SDS011;43078;52.972;6.482;2022-12-22T17:20:46;22.15;;;13.93;;
57217;SDS011;43078;52.972;6.482;2022-12-22T17:26:00;16.13;;;11.18;;
57217;SDS011;43078;52.972;6.482;2022-12-22T17:28:27;25.90;;;16.48;;
57217;SDS011;43078;52.972;6.482;2022-12-22T17:30:53;25.38;;;15.85;;
57217;SDS011;43078;52.972;6.482;2022-12-22T17:33:19;23.05;;;15.15;;
57217;SDS011;43078;52.972;6.482;2022-12-22T17:35:45;27.83;;;18.77;;
57217;SDS011;43078;52.972;6.482;2022-12-22T17:38:15;29.60;;;19.40;;
57217;SDS011;43078;52.972;6.482;2022-12-22T17:40:43;28.50;;;18.25;;
57217;SDS011;43078;52.972;6.482;2022-12-22T17:43:16;24.38;;;16.38;;
57217;SDS011;43078;52.972;6.482;2022-12-22T17:45:43;28.23;;;18.08;;
57217;SDS011;43078;52.972;6.482;2022-12-22T17:48:12;30.50;;;18.40;;
57217;SDS011;43078;52.972;6.482;2022-12-22T17:50:39;25.38;;;16.10;;
57217;SDS011;43078;52.972;6.482;2022-12-22T17:53:10;30.45;;;19.48;;
57217;SDS011;43078;52.972;6.482;2022-12-22T17:55:39;29.48;;;16.23;;
57217;SDS011;43078;52.972;6.482;2022-12-22T17:58:05;42.45;;;22.35;;
57217;SDS011;43078;52.972;6.482;2022-12-22T18:00:31;50.75;;;24.20;;
57217;SDS011;43078;52.972;6.482;2022-12-22T18:02:57;32.38;;;19.58;;
57217;SDS011;43078;52.972;6.482;2022-12-22T18:05:24;30.63;;;17.45;;
57217;SDS011;43078;52.972;6.482;2022-12-22T18:07:52;28.15;;;16.77;;
57217;SDS011;43078;52.972;6.482;2022-12-22T18:10:24;29.48;;;16.60;;
57217;SDS011;43078;52.972;6.482;2022-12-22T18:12:58;28.35;;;17.80;;
57217;SDS011;43078;52.972;6.482;2022-12-22T18:15:26;29.98;;;17.67;;
57217;SDS011;43078;52.972;6.482;2022-12-22T18:17:53;28.80;;;17.10;;
57217;SDS011;43078;52.972;6.482;2022-12-22T18:20:23;25.15;;;16.73;;
57217;SDS011;43078;52.972;6.482;2022-12-22T18:22:59;27.65;;;17.08;;
57217;SDS011;43078;52.972;6.482;2022-12-22T18:25:26;25.80;;;15.68;;
57217;SDS011;43078;52.972;6.482;2022-12-22T18:27:54;30.83;;;18.88;;
57217;SDS011;43078;52.972;6.482;2022-12-22T18:30:22;27.42;;;18.17;;
57217;SDS011;43078;52.972;6.482;2022-12-22T18:32:49;30.42;;;20.30;;
57217;SDS011;43078;52.972;6.482;2022-12-22T18:35:16;24.92;;;16.15;;
57217;SDS011;43078;52.972;6.482;2022-12-22T18:37:43;25.92;;;16.27;;
57217;SDS011;43078;52.972;6.482;2022-12-22T18:40:42;37.80;;;20.70;;
57217;SDS011;43078;52.972;6.482;2022-12-22T18:43:02;44.87;;;23.57;;
57217;SDS011;43078;52.972;6.482;2022-12-22T18:45:35;40.00;;;21.70;;
57217;SDS011;43078;52.972;6.482;2022-12-22T18:48:01;27.50;;;17.15;;
57217;SDS011;43078;52.972;6.482;2022-12-22T18:50:27;26.65;;;17.17;;